createdAt,value
2019-04-29T00:00:35.635Z,57.66
2019-04-29T00:01:41.564Z,57.74
2019-04-29T00:02:45.736Z,57.82
2019-04-29T00:03:49.999Z,57.68
2019-04-29T00:04:54.178Z,57.70
2019-04-29T00:05:58.491Z,58.01
2019-04-29T00:07:02.855Z,58.12
2019-04-29T00:08:07.094Z,58.12
2019-04-29T00:09:15.535Z,58.17
2019-04-29T00:10:20.748Z,58.15
2019-04-29T00:11:25.182Z,58.03
2019-04-29T00:12:29.943Z,58.01
2019-04-29T00:13:34.212Z,58.01
2019-04-29T00:14:40.220Z,58.06
2019-04-29T00:15:49.195Z,58.02
2019-04-29T00:16:55.118Z,57.92
2019-04-29T00:18:00.920Z,57.87
2019-04-29T00:19:18.286Z,58.11
2019-04-29T00:20:35.620Z,58.24
2019-04-29T00:21:40.677Z,58.46
2019-04-29T00:22:44.855Z,58.48
2019-04-29T00:23:57.186Z,58.47
2019-04-29T00:24:55.201Z,58.48
2019-04-29T00:25:59.448Z,58.40
2019-04-29T00:27:04.056Z,58.40
2019-04-29T00:28:08.368Z,58.44
2019-04-29T00:29:12.610Z,58.42
2019-04-29T00:30:18.758Z,58.53
2019-04-29T00:31:23.030Z,58.57
2019-04-29T00:32:27.279Z,58.56
2019-04-29T00:33:31.481Z,58.58
2019-04-29T00:34:35.707Z,58.45
2019-04-29T00:35:40.005Z,58.60
2019-04-29T00:36:48.771Z,58.76
2019-04-29T00:38:03.764Z,58.82
2019-04-29T00:39:25.790Z,59.08
2019-04-29T00:40:37.372Z,59.14
2019-04-29T00:41:46.634Z,59.19
2019-04-29T00:42:57.881Z,59.20
2019-04-29T00:44:04.017Z,59.25
2019-04-29T00:45:08.179Z,59.17
2019-04-29T00:46:12.796Z,59.16
2019-04-29T00:47:17.234Z,59.51
2019-04-29T00:48:21.446Z,59.57
2019-04-29T00:49:25.702Z,59.48
2019-04-29T00:50:29.876Z,59.55
2019-04-29T00:51:34.189Z,59.63
2019-04-29T00:52:38.461Z,59.52
2019-04-29T00:53:42.937Z,59.53
2019-04-29T00:55:06.891Z,59.59
2019-04-29T00:56:11.131Z,59.58
2019-04-29T00:57:15.307Z,59.51
2019-04-29T00:58:19.516Z,59.53
2019-04-29T00:59:23.713Z,59.56
2019-04-29T01:00:32.514Z,59.80
2019-04-29T01:01:36.766Z,59.77
2019-04-29T01:02:40.947Z,59.85
2019-04-29T01:03:45.184Z,59.78
2019-04-29T01:04:49.456Z,59.97
2019-04-29T01:05:53.621Z,59.87
2019-04-29T01:06:58.883Z,59.85
2019-04-29T01:08:03.061Z,59.90
2019-04-29T01:09:08.902Z,59.91
2019-04-29T01:10:13.524Z,59.91
2019-04-29T01:11:18.808Z,59.88
2019-04-29T01:12:22.950Z,59.85
2019-04-29T01:13:27.185Z,59.87
2019-04-29T01:14:31.514Z,59.69
2019-04-29T01:15:35.770Z,59.68
2019-04-29T01:16:40.108Z,59.75
2019-04-29T01:17:44.279Z,59.76
2019-04-29T01:18:48.644Z,59.73
2019-04-29T01:19:52.858Z,59.67
2019-04-29T01:20:57.167Z,59.68
2019-04-29T01:22:01.429Z,59.66
2019-04-29T01:23:05.708Z,59.57
2019-04-29T01:24:11.024Z,59.55
2019-04-29T01:25:15.206Z,59.56
2019-04-29T01:26:37.431Z,59.45
2019-04-29T01:27:43.394Z,59.33
2019-04-29T01:28:53.377Z,59.25
2019-04-29T01:29:57.691Z,59.25
2019-04-29T01:31:05.539Z,59.24
2019-04-29T01:32:09.764Z,59.16
2019-04-29T01:33:13.934Z,59.23
2019-04-29T01:34:22.756Z,59.23
2019-04-29T01:35:26.950Z,59.26
2019-04-29T01:36:32.766Z,59.29
2019-04-29T01:37:41.386Z,59.25
2019-04-29T01:38:48.671Z,59.27
2019-04-29T01:39:56.406Z,59.28
2019-04-29T01:41:08.828Z,59.36
2019-04-29T01:42:26.498Z,59.36
2019-04-29T01:43:32.366Z,59.36
2019-04-29T01:44:37.039Z,59.38
2019-04-29T01:45:41.226Z,59.47
2019-04-29T01:46:45.381Z,59.47
2019-04-29T01:47:49.630Z,59.53
2019-04-29T01:48:53.847Z,59.66
2019-04-29T01:49:58.183Z,59.72
2019-04-29T01:51:02.456Z,59.73
2019-04-29T01:52:06.658Z,59.67
2019-04-29T01:53:10.895Z,60.08
2019-04-29T01:54:15.084Z,59.85
2019-04-29T01:55:20.888Z,59.70
2019-04-29T01:56:26.130Z,59.69
2019-04-29T01:57:30.369Z,59.83
2019-04-29T01:58:34.931Z,59.78
2019-04-29T01:59:39.162Z,59.85
2019-04-29T02:00:43.557Z,59.79
2019-04-29T02:01:47.729Z,59.69
2019-04-29T02:02:51.898Z,59.63
2019-04-29T02:03:56.096Z,59.55
2019-04-29T02:05:00.263Z,59.42
2019-04-29T02:06:05.145Z,59.46
2019-04-29T02:07:09.309Z,59.46
2019-04-29T02:08:13.477Z,59.46
2019-04-29T02:09:19.285Z,59.54
2019-04-29T02:10:30.816Z,59.63
2019-04-29T02:11:35.086Z,59.67
2019-04-29T02:12:39.272Z,59.75
2019-04-29T02:13:43.438Z,60.02
2019-04-29T02:14:47.671Z,60.61
2019-04-29T02:15:52.814Z,60.47
2019-04-29T02:16:57.043Z,60.56
2019-04-29T02:18:01.270Z,60.48
2019-04-29T02:19:06.507Z,60.28
2019-04-29T02:20:10.748Z,60.07
2019-04-29T02:21:14.943Z,60.00
2019-04-29T02:22:20.767Z,59.96
2019-04-29T02:23:38.864Z,59.85
2019-04-29T02:24:44.801Z,59.80
2019-04-29T02:25:50.448Z,59.88
2019-04-29T02:26:54.838Z,60.05
2019-04-29T02:27:58.970Z,60.41
2019-04-29T02:29:03.331Z,60.32
2019-04-29T02:30:07.768Z,60.37
2019-04-29T02:31:30.162Z,61.06
2019-04-29T02:32:34.505Z,60.86
2019-04-29T02:33:38.680Z,60.62
2019-04-29T02:34:42.858Z,60.35
2019-04-29T02:35:47.059Z,60.18
2019-04-29T02:36:51.203Z,60.14
2019-04-29T02:37:55.938Z,60.16
2019-04-29T02:39:11.017Z,60.16
2019-04-29T02:40:16.895Z,59.95
2019-04-29T02:41:25.504Z,59.80
2019-04-29T02:42:40.300Z,59.72
2019-04-29T02:43:46.185Z,59.71
2019-04-29T02:44:50.905Z,59.63
2019-04-29T02:45:55.192Z,59.56
2019-04-29T02:46:59.362Z,59.52
2019-04-29T02:48:04.165Z,59.53
2019-04-29T02:49:08.353Z,59.54
2019-04-29T02:50:12.514Z,59.49
2019-04-29T02:51:18.462Z,59.34
2019-04-29T02:52:22.630Z,59.30
2019-04-29T02:53:26.878Z,59.46
2019-04-29T02:54:31.112Z,59.51
2019-04-29T02:55:37.153Z,59.43
2019-04-29T02:56:43.137Z,59.43
2019-04-29T02:57:58.015Z,59.31
2019-04-29T02:59:03.824Z,59.21
2019-04-29T03:00:26.368Z,59.25
2019-04-29T03:01:44.315Z,59.23
2019-04-29T03:02:50.201Z,59.11
2019-04-29T03:03:56.297Z,59.08
2019-04-29T03:05:10.925Z,59.12
2019-04-29T03:06:15.133Z,59.21
2019-04-29T03:07:19.488Z,59.28
2019-04-29T03:08:24.746Z,59.30
2019-04-29T03:09:30.677Z,59.44
2019-04-29T03:10:34.948Z,59.50
2019-04-29T03:11:39.118Z,59.54
2019-04-29T03:12:43.984Z,59.63
2019-04-29T03:13:48.505Z,59.60
2019-04-29T03:14:52.725Z,59.51
2019-04-29T03:15:57.998Z,59.57
2019-04-29T03:17:02.814Z,59.81
2019-04-29T03:18:07.710Z,59.84
2019-04-29T03:19:19.365Z,59.91
2019-04-29T03:20:25.229Z,59.86
2019-04-29T03:21:33.952Z,59.93
2019-04-29T03:22:42.719Z,59.98
2019-04-29T03:23:46.970Z,60.06
2019-04-29T03:24:51.209Z,60.04
2019-04-29T03:25:55.516Z,60.03
2019-04-29T03:26:59.811Z,59.98
2019-04-29T03:28:04.818Z,60.03
2019-04-29T03:29:10.687Z,60.03
2019-04-29T03:30:14.859Z,60.11
2019-04-29T03:31:19.228Z,60.26
2019-04-29T03:32:23.441Z,60.31
2019-04-29T03:33:27.739Z,60.26
2019-04-29T03:34:31.997Z,60.30
2019-04-29T03:35:36.326Z,60.50
2019-04-29T03:36:40.654Z,60.50
2019-04-29T03:37:44.978Z,60.70
2019-04-29T03:38:50.812Z,60.56
2019-04-29T03:39:55.008Z,60.57
2019-04-29T03:40:59.141Z,60.49
2019-04-29T03:42:07.006Z,60.91
2019-04-29T03:43:09.284Z,60.78
2019-04-29T03:44:13.488Z,60.80
2019-04-29T03:45:17.656Z,60.72
2019-04-29T03:46:21.917Z,60.69
2019-04-29T03:47:26.097Z,60.70
2019-04-29T03:48:30.265Z,60.75
2019-04-29T03:49:34.944Z,60.67
2019-04-29T03:50:39.153Z,60.71
2019-04-29T03:51:43.626Z,60.67
2019-04-29T03:52:47.847Z,60.64
2019-04-29T03:53:51.972Z,60.70
2019-04-29T03:54:56.241Z,60.71
2019-04-29T03:56:00.401Z,60.71
2019-04-29T03:57:05.986Z,60.69
2019-04-29T03:58:10.189Z,60.59
2019-04-29T03:59:14.366Z,60.49
2019-04-29T04:00:18.703Z,60.51
2019-04-29T04:01:24.528Z,60.56
2019-04-29T04:02:36.260Z,60.53
2019-04-29T04:03:45.002Z,60.55
2019-04-29T04:05:06.866Z,60.66
2019-04-29T04:06:12.698Z,60.70
2019-04-29T04:07:27.682Z,60.79
2019-04-29T04:08:40.482Z,60.69
2019-04-29T04:09:44.655Z,60.84
2019-04-29T04:10:49.134Z,60.92
2019-04-29T04:11:53.790Z,60.97
2019-04-29T04:12:57.984Z,60.99
2019-04-29T04:14:02.249Z,61.06
2019-04-29T04:15:08.050Z,61.06
2019-04-29T04:16:13.873Z,61.06
2019-04-29T04:17:22.465Z,61.10
2019-04-29T04:18:28.005Z,61.04
2019-04-29T04:19:33.455Z,61.00
2019-04-29T04:20:37.650Z,60.96
2019-04-29T04:21:41.969Z,61.00
2019-04-29T04:22:47.322Z,61.00
2019-04-29T04:23:51.494Z,61.02
2019-04-29T04:24:55.695Z,61.06
2019-04-29T04:25:59.866Z,60.94
2019-04-29T04:27:04.663Z,60.84
2019-04-29T04:28:08.879Z,60.81
2019-04-29T04:29:13.120Z,60.86
2019-04-29T04:30:17.697Z,60.88
2019-04-29T04:31:22.828Z,60.86
2019-04-29T04:32:27.067Z,60.86
2019-04-29T04:33:31.699Z,61.02
2019-04-29T04:34:36.035Z,60.98
2019-04-29T04:35:40.354Z,60.97
2019-04-29T04:36:44.522Z,61.17
2019-04-29T04:37:48.726Z,61.22
2019-04-29T04:38:53.023Z,61.14
2019-04-29T04:39:58.269Z,61.13
2019-04-29T04:41:06.829Z,61.16
2019-04-29T04:42:11.057Z,61.09
2019-04-29T04:43:15.264Z,61.10
2019-04-29T04:44:19.586Z,61.08
2019-04-29T04:45:23.765Z,61.04
2019-04-29T04:46:27.932Z,61.08
2019-04-29T04:47:32.297Z,61.01
2019-04-29T04:48:36.528Z,61.00
2019-04-29T04:49:40.789Z,61.04
2019-04-29T04:50:44.954Z,60.95
2019-04-29T04:51:49.278Z,60.94
2019-04-29T04:52:53.446Z,61.00
2019-04-29T04:53:57.731Z,61.06
2019-04-29T04:55:02.103Z,61.16
2019-04-29T04:56:06.267Z,61.25
2019-04-29T04:57:10.448Z,61.29
2019-04-29T04:58:14.621Z,61.38
2019-04-29T04:59:18.789Z,61.34
2019-04-29T05:00:25.763Z,61.38
2019-04-29T05:01:29.925Z,61.33
2019-04-29T05:02:34.303Z,61.38
2019-04-29T05:03:38.476Z,61.51
2019-04-29T05:04:42.848Z,61.50
2019-04-29T05:05:47.149Z,61.47
2019-04-29T05:06:51.330Z,61.51
2019-04-29T05:07:55.773Z,61.40
2019-04-29T05:08:59.953Z,61.39
2019-04-29T05:10:05.670Z,61.48
2019-04-29T05:11:10.047Z,61.44
2019-04-29T05:12:14.343Z,61.33
2019-04-29T05:13:27.806Z,61.32
2019-04-29T05:14:26.495Z,61.50
2019-04-29T05:15:30.741Z,61.60
2019-04-29T05:16:35.038Z,61.62
2019-04-29T05:17:39.203Z,61.63
2019-04-29T05:18:43.443Z,61.70
2019-04-29T05:19:47.681Z,61.74
2019-04-29T05:20:53.017Z,61.76
2019-04-29T05:21:58.242Z,61.78
2019-04-29T05:23:02.415Z,61.76
2019-04-29T05:24:06.619Z,61.77
2019-04-29T05:25:10.873Z,61.78
2019-04-29T05:26:15.116Z,61.84
2019-04-29T05:27:20.277Z,61.85
2019-04-29T05:28:24.438Z,61.87
2019-04-29T05:29:28.916Z,61.91
2019-04-29T05:30:33.718Z,61.98
2019-04-29T05:31:38.712Z,61.89
2019-04-29T05:32:44.311Z,61.77
2019-04-29T05:33:51.690Z,61.58
2019-04-29T05:34:57.504Z,61.44
2019-04-29T05:37:45.685Z,61.27
2019-04-29T05:38:52.100Z,61.23
2019-04-29T05:39:56.271Z,61.28
2019-04-29T05:41:00.434Z,61.20
2019-04-29T05:42:07.740Z,61.27
2019-04-29T05:43:14.980Z,61.25
2019-04-29T05:44:20.978Z,61.36
2019-04-29T05:45:35.811Z,61.41
2019-04-29T05:46:53.680Z,61.37
2019-04-29T05:48:05.395Z,61.67
2019-04-29T05:49:11.787Z,61.87
2019-04-29T05:50:23.538Z,61.83
2019-04-29T05:51:29.515Z,61.74
2019-04-29T05:52:39.375Z,61.86
2019-04-29T05:53:57.846Z,61.87
2019-04-29T05:55:02.302Z,61.95
2019-04-29T05:56:06.498Z,62.21
2019-04-29T05:57:10.775Z,62.46
2019-04-29T05:58:14.945Z,62.61
2019-04-29T05:59:19.516Z,62.67
2019-04-29T06:00:24.292Z,62.51
2019-04-29T06:01:29.946Z,62.42
2019-04-29T06:02:38.568Z,62.20
2019-04-29T06:03:40.275Z,62.20
2019-04-29T06:04:48.079Z,62.20
2019-04-29T06:05:50.694Z,62.17
2019-04-29T06:06:54.946Z,62.36
2019-04-29T06:08:01.034Z,62.41
2019-04-29T06:09:11.590Z,62.52
2019-04-29T06:10:13.826Z,62.50
2019-04-29T06:11:18.328Z,62.61
2019-04-29T06:12:22.482Z,62.49
2019-04-29T06:13:26.731Z,62.48
2019-04-29T06:14:30.979Z,62.18
2019-04-29T06:15:35.323Z,62.38
2019-04-29T06:16:39.571Z,62.30
2019-04-29T06:17:44.839Z,62.45
2019-04-29T06:18:49.692Z,62.72
2019-04-29T06:19:53.904Z,62.63
2019-04-29T06:21:08.851Z,62.71
2019-04-29T06:22:04.369Z,62.71
2019-04-29T06:23:08.556Z,62.97
2019-04-29T06:24:12.919Z,63.07
2019-04-29T06:25:17.159Z,62.90
2019-04-29T06:26:21.335Z,62.62
2019-04-29T06:27:25.552Z,62.55
2019-04-29T06:28:29.729Z,62.36
2019-04-29T06:29:34.064Z,62.40
2019-04-29T06:30:40.614Z,62.39
2019-04-29T06:31:44.485Z,62.36
2019-04-29T06:32:48.713Z,62.18
2019-04-29T06:33:52.902Z,62.23
2019-04-29T06:34:57.290Z,62.08
2019-04-29T06:36:01.497Z,61.85
2019-04-29T06:37:05.675Z,61.72
2019-04-29T06:38:09.934Z,61.59
2019-04-29T06:39:14.107Z,61.75
2019-04-29T06:40:19.177Z,61.69
2019-04-29T06:41:23.350Z,61.65
2019-04-29T06:42:27.532Z,61.76
2019-04-29T06:43:31.785Z,61.89
2019-04-29T06:44:36.035Z,61.96
2019-04-29T06:45:40.530Z,61.89
2019-04-29T06:46:45.671Z,61.75
2019-04-29T06:47:49.955Z,61.76
2019-04-29T06:48:54.208Z,61.44
2019-04-29T06:49:58.554Z,61.44
2019-04-29T06:51:02.963Z,61.46
2019-04-29T06:52:07.107Z,61.59
2019-04-29T06:53:11.391Z,61.51
2019-04-29T06:54:15.635Z,61.53
2019-04-29T06:55:19.953Z,61.34
2019-04-29T06:56:24.197Z,61.30
2019-04-29T06:57:28.369Z,61.06
2019-04-29T06:58:36.691Z,61.17
2019-04-29T06:59:38.567Z,61.00
2019-04-29T07:00:42.738Z,60.81
2019-04-29T07:01:47.078Z,61.15
2019-04-29T07:02:51.554Z,60.99
2019-04-29T07:03:59.861Z,60.82
2019-04-29T07:05:01.821Z,60.85
2019-04-29T07:06:07.162Z,60.69
2019-04-29T07:07:11.404Z,60.90
2019-04-29T07:08:15.665Z,60.69
2019-04-29T07:09:20.018Z,60.38
2019-04-29T07:10:27.109Z,60.79
2019-04-29T07:11:31.871Z,61.13
2019-04-29T07:12:36.630Z,60.73
2019-04-29T07:13:41.792Z,60.94
2019-04-29T07:14:46.565Z,60.46
2019-04-29T07:15:51.174Z,60.96
2019-04-29T07:16:55.721Z,60.47
2019-04-29T07:18:00.043Z,60.50
2019-04-29T07:19:05.195Z,61.04
2019-04-29T07:20:09.754Z,61.02
2019-04-29T07:21:13.951Z,60.92
2019-04-29T07:22:20.884Z,61.09
2019-04-29T07:23:24.633Z,60.09
2019-04-29T07:24:28.991Z,60.21
2019-04-29T07:25:33.834Z,60.15
2019-04-29T07:26:38.208Z,60.41
2019-04-29T07:27:44.164Z,60.50
2019-04-29T07:28:53.307Z,60.65
2019-04-29T07:29:56.697Z,60.31
2019-04-29T07:31:03.009Z,60.21
2019-04-29T07:32:09.324Z,59.96
2019-04-29T07:33:21.828Z,59.28
2019-04-29T07:34:19.730Z,59.27
2019-04-29T07:35:24.600Z,59.54
2019-04-29T07:36:28.811Z,59.12
2019-04-29T07:37:34.180Z,59.35
2019-04-29T07:38:41.846Z,59.50
2019-04-29T07:39:46.952Z,59.64
2019-04-29T07:40:51.613Z,59.24
2019-04-29T07:41:56.036Z,59.76
2019-04-29T07:43:02.845Z,59.47
2019-04-29T07:44:07.318Z,59.36
2019-04-29T07:45:14.304Z,59.40
2019-04-29T07:46:23.264Z,59.84
2019-04-29T07:47:29.446Z,59.39
2019-04-29T07:48:36.944Z,59.59
2019-04-29T07:49:40.807Z,58.91
2019-04-29T07:50:45.175Z,59.18
2019-04-29T07:51:49.435Z,58.82
2019-04-29T07:52:54.145Z,58.35
2019-04-29T07:53:58.712Z,57.81
2019-04-29T07:55:03.520Z,59.67
2019-04-29T07:56:08.208Z,59.67
2019-04-29T07:57:16.538Z,58.71
2019-04-29T07:58:22.950Z,59.42
2019-04-29T07:59:25.721Z,59.37
2019-04-29T08:00:34.530Z,58.83
2019-04-29T08:01:38.817Z,58.85
2019-04-29T08:02:43.362Z,58.24
2019-04-29T08:03:48.279Z,58.81
2019-04-29T08:04:52.664Z,58.23
2019-04-29T08:05:57.569Z,56.80
2019-04-29T08:07:02.265Z,57.35
2019-04-29T08:08:06.803Z,57.32
2019-04-29T08:09:11.229Z,57.01
2019-04-29T08:10:23.781Z,56.83
2019-04-29T08:11:21.604Z,56.33
2019-04-29T08:12:25.865Z,56.36
2019-04-29T08:13:30.403Z,57.39
2019-04-29T08:14:34.828Z,57.78
2019-04-29T08:15:41.449Z,58.77
2019-04-29T08:16:45.343Z,57.98
2019-04-29T08:17:51.443Z,58.18
2019-04-29T08:18:56.052Z,58.12
2019-04-29T08:20:00.781Z,58.94
2019-04-29T08:21:06.535Z,58.51
2019-04-29T08:22:11.051Z,58.31
2019-04-29T08:23:15.436Z,57.60
2019-04-29T08:24:20.244Z,57.52
2019-04-29T08:25:26.043Z,56.40
2019-04-29T08:26:33.586Z,56.29
2019-04-29T08:27:40.759Z,56.01
2019-04-29T08:28:45.010Z,55.86
2019-04-29T08:29:49.496Z,56.28
2019-04-29T08:30:53.938Z,56.67
2019-04-29T08:32:02.188Z,55.74
2019-04-29T08:33:07.497Z,55.10
2019-04-29T08:34:11.759Z,54.50
2019-04-29T08:35:16.773Z,54.82
2019-04-29T08:36:21.104Z,55.19
2019-04-29T08:37:25.342Z,55.02
2019-04-29T08:38:30.240Z,54.14
2019-04-29T08:39:34.559Z,54.89
2019-04-29T08:40:38.750Z,55.15
2019-04-29T08:41:43.583Z,54.98
2019-04-29T08:42:49.541Z,54.41
2019-04-29T08:43:56.498Z,54.27
2019-04-29T08:45:09.367Z,53.87
2019-04-29T08:46:27.314Z,53.79
2019-04-29T08:47:36.633Z,53.38
2019-04-29T08:48:41.259Z,53.34
2019-04-29T08:49:45.534Z,54.55
2019-04-29T08:50:50.331Z,54.61
2019-04-29T08:51:55.437Z,54.52
2019-04-29T08:52:59.726Z,54.40
2019-04-29T08:54:04.740Z,54.32
2019-04-29T08:55:08.951Z,53.00
2019-04-29T08:56:13.226Z,53.32
2019-04-29T08:57:17.427Z,52.19
2019-04-29T08:58:21.824Z,51.94
2019-04-29T08:59:26.068Z,52.63
2019-04-29T09:00:30.323Z,53.44
2019-04-29T09:01:35.808Z,52.66
2019-04-29T09:02:41.264Z,52.16
2019-04-29T09:03:46.277Z,51.16
2019-04-29T09:04:53.858Z,51.52
2019-04-29T09:06:05.244Z,51.79
2019-04-29T09:07:12.356Z,51.61
2019-04-29T09:08:08.217Z,51.52
2019-04-29T09:09:27.939Z,53.06
2019-04-29T09:10:19.165Z,53.31
2019-04-29T09:11:23.413Z,51.00
2019-04-29T09:12:29.327Z,51.04
2019-04-29T09:13:33.605Z,49.84
2019-04-29T09:14:37.814Z,48.86
2019-04-29T09:15:42.014Z,49.26
2019-04-29T09:16:47.135Z,51.15
2019-04-29T09:17:51.312Z,51.00
2019-04-29T09:18:55.551Z,49.19
2019-04-29T09:19:59.864Z,48.26
2019-04-29T09:21:04.938Z,46.13
2019-04-29T09:22:10.818Z,47.52
2019-04-29T09:23:22.561Z,47.90
2019-04-29T09:24:26.870Z,49.33
2019-04-29T09:25:32.840Z,49.33
2019-04-29T09:26:44.300Z,49.08
2019-04-29T09:27:56.226Z,50.05
2019-04-29T09:29:03.812Z,48.58
2019-04-29T09:30:07.152Z,47.42
2019-04-29T09:31:11.632Z,48.51
2019-04-29T09:32:15.875Z,48.95
2019-04-29T09:33:20.048Z,47.84
2019-04-29T09:34:26.151Z,46.83
2019-04-29T09:35:33.863Z,47.00
2019-04-29T09:36:36.113Z,48.37
2019-04-29T09:37:40.988Z,48.01
2019-04-29T09:38:45.175Z,47.29
2019-04-29T09:39:49.366Z,46.33
2019-04-29T09:40:59.649Z,45.94
2019-04-29T09:42:08.115Z,46.83
2019-04-29T09:43:32.630Z,46.44
2019-04-29T09:44:53.127Z,47.10
2019-04-29T09:46:04.787Z,46.01
2019-04-29T09:47:10.264Z,45.86
2019-04-29T09:48:14.544Z,43.26
2019-04-29T09:49:18.812Z,43.14
2019-04-29T09:50:23.010Z,43.46
2019-04-29T09:51:28.217Z,43.14
2019-04-29T09:52:33.104Z,43.64
2019-04-29T09:53:37.331Z,42.86
2019-04-29T09:54:41.491Z,43.87
2019-04-29T09:55:45.787Z,43.39
2019-04-29T09:56:49.979Z,41.70
2019-04-29T09:57:54.250Z,41.10
2019-04-29T09:59:16.354Z,42.03
2019-04-29T10:00:24.825Z,41.80
2019-04-29T10:01:42.555Z,41.31
2019-04-29T10:02:48.535Z,39.66
2019-04-29T10:04:06.096Z,41.79
2019-04-29T10:05:27.994Z,40.45
2019-04-29T10:06:36.495Z,42.16
2019-04-29T10:07:40.678Z,40.33
2019-04-29T10:08:44.902Z,40.33
2019-04-29T10:09:57.139Z,42.08
2019-04-29T10:10:56.187Z,42.05
2019-04-29T10:12:00.783Z,42.44
2019-04-29T10:13:05.287Z,42.39
2019-04-29T10:14:09.634Z,41.66
2019-04-29T10:15:15.672Z,41.92
2019-04-29T10:16:24.442Z,41.98
2019-04-29T10:17:30.323Z,41.42
2019-04-29T10:18:39.149Z,40.93
2019-04-29T10:19:54.411Z,41.68
2019-04-29T10:21:00.235Z,42.12
2019-04-29T10:22:05.066Z,40.17
2019-04-29T10:23:09.297Z,41.17
2019-04-29T10:24:14.652Z,40.19
2019-04-29T10:25:19.393Z,40.17
2019-04-29T10:26:23.587Z,40.07
2019-04-29T10:27:27.822Z,40.04
2019-04-29T10:28:34.803Z,40.24
2019-04-29T10:29:39.429Z,41.03
2019-04-29T10:30:44.444Z,41.65
2019-04-29T10:31:48.756Z,41.09
2019-04-29T10:32:54.056Z,41.01
2019-04-29T10:33:58.229Z,41.15
2019-04-29T10:35:03.681Z,41.04
2019-04-29T10:36:09.303Z,39.26
2019-04-29T10:37:13.529Z,39.14
2019-04-29T10:38:17.870Z,40.14
2019-04-29T10:39:38.754Z,38.96
2019-04-29T10:40:47.652Z,38.86
2019-04-29T10:41:51.982Z,39.72
2019-04-29T10:43:00.896Z,39.62
2019-04-29T10:44:23.739Z,40.19
2019-04-29T10:45:35.597Z,39.86
2019-04-29T10:46:56.516Z,38.91
2019-04-29T10:48:17.423Z,39.66
2019-04-29T10:49:29.204Z,39.25
2019-04-29T10:50:35.095Z,39.73
2019-04-29T10:51:39.379Z,38.42
2019-04-29T10:52:43.802Z,38.00
2019-04-29T10:53:51.000Z,38.37
2019-04-29T10:54:55.415Z,37.53
2019-04-29T10:56:00.878Z,37.46
2019-04-29T10:57:06.157Z,34.81
2019-04-29T10:58:10.664Z,34.98
2019-04-29T10:59:14.907Z,35.40
2019-04-29T11:00:24.072Z,35.23
2019-04-29T11:01:35.913Z,35.52
2019-04-29T11:02:44.768Z,35.17
2019-04-29T11:03:47.340Z,35.91
2019-04-29T11:05:11.794Z,34.84
2019-04-29T11:06:16.647Z,34.42
2019-04-29T11:07:28.125Z,36.35
2019-04-29T11:08:42.983Z,36.44
2019-04-29T11:09:50.836Z,37.57
2019-04-29T11:11:02.137Z,37.58
2019-04-29T11:12:00.036Z,37.62
2019-04-29T11:13:05.209Z,38.34
2019-04-29T11:14:09.435Z,37.47
2019-04-29T11:15:15.361Z,37.51
2019-04-29T11:16:23.083Z,37.86
2019-04-29T11:17:27.839Z,36.95
2019-04-29T11:18:33.011Z,36.90
2019-04-29T11:19:39.886Z,37.22
2019-04-29T11:20:44.693Z,37.21
2019-04-29T11:21:48.997Z,37.52
2019-04-29T11:22:54.927Z,37.44
2019-04-29T11:24:10.819Z,37.53
2019-04-29T11:25:33.292Z,38.03
2019-04-29T11:26:45.009Z,37.97
2019-04-29T11:27:50.841Z,37.95
2019-04-29T11:28:56.590Z,38.66
2019-04-29T11:30:02.835Z,38.44
2019-04-29T11:31:09.791Z,38.16
2019-04-29T11:32:15.898Z,37.44
2019-04-29T11:33:25.088Z,36.37
2019-04-29T11:34:36.964Z,36.83
2019-04-29T11:35:45.530Z,37.37
2019-04-29T11:36:49.799Z,38.25
2019-04-29T11:37:57.249Z,38.38
2019-04-29T11:39:00.469Z,38.00
2019-04-29T11:40:06.736Z,38.14
2019-04-29T11:41:12.257Z,37.56
2019-04-29T11:42:17.053Z,37.13
2019-04-29T11:43:22.073Z,36.89
2019-04-29T11:44:27.759Z,37.35
2019-04-29T11:45:33.693Z,37.49
2019-04-29T11:46:38.408Z,37.46
2019-04-29T11:47:42.662Z,37.10
2019-04-29T11:48:46.979Z,36.90
2019-04-29T11:49:52.861Z,36.36
2019-04-29T11:50:59.255Z,36.58
2019-04-29T11:52:09.612Z,35.33
2019-04-29T11:53:11.406Z,36.71
2019-04-29T11:54:18.084Z,36.93
2019-04-29T11:55:22.186Z,37.07
2019-04-29T11:56:26.507Z,36.77
2019-04-29T11:57:40.634Z,35.97
2019-04-29T11:58:49.098Z,36.33
2019-04-29T12:00:10.457Z,36.77
2019-04-29T12:01:38.804Z,36.88
2019-04-29T12:02:45.708Z,36.29
2019-04-29T12:03:51.363Z,35.53
2019-04-29T12:04:55.944Z,35.12
2019-04-29T12:06:01.836Z,35.82
2019-04-29T12:07:06.224Z,36.16
2019-04-29T12:08:16.923Z,36.84
2019-04-29T12:09:17.992Z,36.54
2019-04-29T12:10:23.136Z,36.31
2019-04-29T12:11:28.740Z,36.49
2019-04-29T12:12:33.716Z,36.64
2019-04-29T12:13:48.738Z,36.21
2019-04-29T12:14:54.650Z,35.68
2019-04-29T12:16:00.562Z,35.20
2019-04-29T12:17:09.494Z,35.58
2019-04-29T12:18:20.842Z,35.39
2019-04-29T12:19:26.937Z,35.32
2019-04-29T12:20:35.510Z,35.41
2019-04-29T12:21:41.578Z,36.16
2019-04-29T12:22:48.770Z,36.51
2019-04-29T12:23:53.251Z,36.36
2019-04-29T12:24:57.669Z,35.91
2019-04-29T12:26:03.226Z,36.04
2019-04-29T12:27:09.826Z,35.67
2019-04-29T12:28:19.310Z,35.44
2019-04-29T12:29:20.170Z,35.51
2019-04-29T12:30:29.945Z,35.63
2019-04-29T12:31:34.359Z,35.78
2019-04-29T12:32:43.398Z,35.44
2019-04-29T12:34:02.902Z,35.57
2019-04-29T12:35:11.502Z,35.18
2019-04-29T12:36:16.589Z,35.22
2019-04-29T12:37:25.615Z,34.78
2019-04-29T12:38:48.647Z,34.78
2019-04-29T12:39:51.275Z,35.62
2019-04-29T12:41:20.169Z,35.78
2019-04-29T12:42:17.161Z,35.78
2019-04-29T12:43:28.670Z,35.56
2019-04-29T12:44:35.582Z,34.68
2019-04-29T12:45:42.093Z,35.25
2019-04-29T12:46:48.109Z,35.01
2019-04-29T12:47:52.660Z,34.97
2019-04-29T12:48:56.833Z,35.27
2019-04-29T12:50:01.024Z,35.26
2019-04-29T12:51:06.521Z,35.52
2019-04-29T12:52:10.782Z,35.60
2019-04-29T12:53:15.234Z,35.64
2019-04-29T12:54:19.551Z,35.98
2019-04-29T12:55:44.243Z,35.77
2019-04-29T12:56:43.265Z,35.46
2019-04-29T12:57:51.139Z,35.26
2019-04-29T12:58:55.243Z,34.88
2019-04-29T13:00:00.142Z,34.31
2019-04-29T13:01:06.501Z,34.61
2019-04-29T13:02:14.161Z,34.92
2019-04-29T13:03:39.484Z,34.69
2019-04-29T13:04:59.730Z,34.52
2019-04-29T13:06:09.847Z,34.83
2019-04-29T13:07:32.316Z,34.61
2019-04-29T13:08:41.018Z,34.29
2019-04-29T13:09:49.862Z,33.85
2019-04-29T13:10:55.779Z,33.82
2019-04-29T13:12:17.967Z,34.08
2019-04-29T13:13:06.078Z,33.87
2019-04-29T13:14:10.345Z,34.29
2019-04-29T13:15:28.590Z,34.72
2019-04-29T13:16:50.933Z,34.53
2019-04-29T13:18:12.677Z,34.22
2019-04-29T13:19:20.747Z,34.19
2019-04-29T13:20:25.394Z,33.98
2019-04-29T13:21:29.771Z,34.43
2019-04-29T13:22:34.369Z,34.38
2019-04-29T13:23:53.751Z,34.00
2019-04-29T13:24:44.733Z,34.04
2019-04-29T13:25:51.081Z,34.47
2019-04-29T13:26:55.483Z,34.89
2019-04-29T13:28:03.998Z,34.79
2019-04-29T13:29:05.599Z,34.61
2019-04-29T13:30:16.076Z,34.78
2019-04-29T13:31:20.185Z,34.72
2019-04-29T13:32:25.498Z,34.56
2019-04-29T13:33:29.554Z,34.69
2019-04-29T13:34:35.898Z,34.60
2019-04-29T13:35:47.972Z,34.23
2019-04-29T13:36:57.419Z,33.54
2019-04-29T13:37:52.417Z,33.72
2019-04-29T13:38:57.151Z,33.62
2019-04-29T13:40:01.805Z,33.71
2019-04-29T13:41:13.377Z,34.29
2019-04-29T13:42:15.794Z,34.41
2019-04-29T13:43:25.463Z,34.39
2019-04-29T13:44:25.491Z,33.77
2019-04-29T13:45:37.665Z,33.48
2019-04-29T13:46:46.299Z,34.11
2019-04-29T13:47:54.071Z,34.33
2019-04-29T13:49:18.008Z,34.31
2019-04-29T13:50:38.931Z,34.17
2019-04-29T13:51:35.681Z,33.99
2019-04-29T13:52:37.830Z,34.29
2019-04-29T13:53:42.185Z,33.96
2019-04-29T13:54:47.577Z,33.71
2019-04-29T13:56:10.423Z,33.49
2019-04-29T13:57:07.660Z,33.49
2019-04-29T13:58:04.301Z,33.40
2019-04-29T13:59:12.426Z,33.24
2019-04-29T14:00:19.904Z,33.87
2019-04-29T14:01:32.937Z,32.85
2019-04-29T14:02:39.446Z,32.99
2019-04-29T14:03:47.096Z,33.43
2019-04-29T14:04:55.927Z,34.04
2019-04-29T14:06:04.306Z,33.52
2019-04-29T14:07:05.295Z,33.28
2019-04-29T14:08:09.528Z,33.85
2019-04-29T14:09:14.057Z,34.27
2019-04-29T14:10:18.300Z,34.88
2019-04-29T14:11:26.055Z,34.94
2019-04-29T14:13:34.740Z,34.15
2019-04-29T14:14:39.199Z,34.40
2019-04-29T14:15:43.711Z,34.27
2019-04-29T14:16:49.380Z,34.52